createdAt,value
2023-02-11T00:01:11.593Z,5.70
2023-02-11T00:03:39.384Z,5.70
2023-02-11T00:06:11.463Z,5.70
2023-02-11T00:08:39.897Z,5.70
2023-02-11T00:11:07.632Z,5.70
2023-02-11T00:13:34.834Z,5.70
2023-02-11T00:16:10.036Z,5.70
2023-02-11T00:18:37.388Z,5.70
2023-02-11T00:21:15.693Z,5.70
2023-02-11T00:23:44.068Z,5.70
2023-02-11T00:26:15.047Z,5.70
2023-02-11T00:28:44.293Z,5.70
2023-02-11T00:31:13.604Z,5.80
2023-02-11T00:33:41.413Z,5.80
2023-02-11T00:36:13.055Z,5.70
2023-02-11T00:38:40.275Z,5.80
2023-02-11T00:41:07.590Z,5.70
2023-02-11T00:43:35.830Z,5.70
2023-02-11T00:46:03.717Z,5.70
2023-02-11T00:48:31.728Z,5.70
2023-02-11T00:51:01.801Z,5.70
2023-02-11T00:53:29.010Z,5.70
2023-02-11T00:55:56.374Z,5.60
2023-02-11T00:58:27.114Z,5.60
2023-02-11T01:00:56.467Z,5.60
2023-02-11T01:03:25.241Z,5.60
2023-02-11T01:05:53.071Z,5.60
2023-02-11T01:08:20.422Z,5.60
2023-02-11T01:10:55.873Z,5.60
2023-02-11T01:13:24.442Z,5.60
2023-02-11T01:15:54.914Z,5.60
2023-02-11T01:18:22.201Z,5.60
2023-02-11T01:20:51.339Z,5.60
2023-02-11T01:23:18.933Z,5.60
2023-02-11T01:25:46.678Z,5.60
2023-02-11T01:28:34.331Z,5.50
2023-02-11T01:31:02.872Z,5.50
2023-02-11T01:33:30.744Z,5.50
2023-02-11T01:36:03.866Z,5.50
2023-02-11T01:38:32.251Z,5.50
2023-02-11T01:41:03.154Z,5.50
2023-02-11T01:43:44.106Z,5.50
2023-02-11T01:46:27.247Z,5.50
2023-02-11T01:49:10.464Z,5.50
2023-02-11T01:51:42.486Z,5.60
2023-02-11T01:54:32.662Z,5.60
2023-02-11T01:57:20.398Z,5.60
2023-02-11T02:00:12.553Z,5.70
2023-02-11T02:03:09.779Z,5.70
2023-02-11T02:05:59.968Z,5.70
2023-02-11T02:08:43.584Z,5.80
2023-02-11T02:11:11.664Z,5.80
2023-02-11T02:13:38.985Z,5.70
2023-02-11T02:16:14.050Z,5.80
2023-02-11T02:19:13.293Z,5.80
2023-02-11T02:22:13.992Z,5.80
2023-02-11T02:25:00.830Z,5.80
2023-02-11T02:27:37.570Z,5.80
2023-02-11T02:30:39.770Z,5.90
2023-02-11T02:33:37.665Z,5.80
2023-02-11T02:36:13.702Z,5.90
2023-02-11T02:39:17.581Z,5.90
2023-02-11T02:41:45.845Z,5.90
2023-02-11T02:44:13.127Z,5.80
2023-02-11T02:46:40.433Z,5.90
2023-02-11T02:49:13.914Z,5.90
2023-02-11T02:52:02.661Z,5.90
2023-02-11T02:54:53.042Z,5.80
2023-02-11T02:57:48.346Z,5.90
2023-02-11T03:00:30.882Z,5.90
2023-02-11T03:03:20.230Z,5.90
2023-02-11T03:05:56.799Z,5.90
2023-02-11T03:08:32.138Z,5.90
2023-02-11T03:11:01.256Z,5.90
2023-02-11T03:13:33.865Z,5.90
2023-02-11T03:16:09.110Z,5.90
2023-02-11T03:18:39.658Z,6.00
2023-02-11T03:21:09.820Z,6.00
2023-02-11T03:23:42.627Z,6.00
2023-02-11T03:26:31.138Z,6.00
2023-02-11T03:29:16.695Z,6.10
2023-02-11T03:32:01.176Z,6.10
2023-02-11T03:34:41.779Z,6.20
2023-02-11T03:37:18.577Z,6.20
2023-02-11T03:39:57.145Z,6.30
2023-02-11T03:42:28.740Z,6.30
2023-02-11T03:45:07.880Z,6.30
2023-02-11T03:47:38.272Z,6.30
2023-02-11T03:50:10.064Z,6.40
2023-02-11T03:52:38.555Z,6.50
2023-02-11T03:55:19.195Z,6.50
2023-02-11T03:57:47.475Z,6.50
2023-02-11T04:00:15.434Z,6.50
2023-02-11T04:02:44.123Z,6.50
2023-02-11T04:05:15.394Z,6.60
2023-02-11T04:07:42.686Z,6.60
2023-02-11T04:10:11.657Z,6.60
2023-02-11T04:12:38.987Z,6.60
2023-02-11T04:15:07.513Z,6.60
2023-02-11T04:17:34.925Z,6.60
2023-02-11T04:20:02.194Z,6.60
2023-02-11T04:22:30.296Z,6.60
2023-02-11T04:24:57.664Z,6.70
2023-02-11T04:27:25.285Z,6.60
2023-02-11T04:29:52.758Z,6.70
2023-02-11T04:32:20.720Z,6.70
2023-02-11T04:34:48.544Z,6.70
2023-02-11T04:37:15.813Z,6.70
2023-02-11T04:39:43.160Z,6.70
2023-02-11T04:42:10.890Z,6.70
2023-02-11T04:44:38.083Z,6.70
2023-02-11T04:47:05.325Z,6.80
2023-02-11T04:49:32.460Z,6.80
2023-02-11T04:51:59.961Z,6.80
2023-02-11T04:54:27.533Z,6.80
2023-02-11T04:56:54.688Z,6.80
2023-02-11T04:59:22.394Z,6.80
2023-02-11T05:01:49.865Z,6.80
2023-02-11T05:04:17.341Z,6.80
2023-02-11T05:06:44.631Z,6.80
2023-02-11T05:09:13.225Z,6.80
2023-02-11T05:11:40.745Z,6.80
2023-02-11T05:14:07.932Z,6.80
2023-02-11T05:16:35.383Z,6.80
2023-02-11T05:19:02.847Z,6.80
2023-02-11T05:21:30.131Z,6.80
2023-02-11T05:23:57.607Z,6.70
2023-02-11T05:26:25.590Z,6.70
2023-02-11T05:28:52.745Z,6.70
2023-02-11T05:31:20.037Z,6.60
2023-02-11T05:33:47.195Z,6.60
2023-02-11T05:36:15.015Z,6.60
2023-02-11T05:38:43.687Z,6.60
2023-02-11T05:41:11.852Z,6.60
2023-02-11T05:43:39.677Z,6.60
2023-02-11T05:46:07.830Z,6.60
2023-02-11T05:48:35.074Z,6.60
2023-02-11T05:51:02.250Z,6.60
2023-02-11T05:53:29.927Z,6.60
2023-02-11T05:55:57.400Z,6.60
2023-02-11T05:58:25.321Z,6.60
2023-02-11T06:00:52.667Z,6.60
2023-02-11T06:03:20.120Z,6.60
2023-02-11T06:05:47.357Z,6.60
2023-02-11T06:08:14.544Z,6.70
2023-02-11T06:10:45.289Z,6.70
2023-02-11T06:13:13.042Z,6.70
2023-02-11T06:15:40.666Z,6.70
2023-02-11T06:18:09.529Z,6.70
2023-02-11T06:20:37.242Z,6.70
2023-02-11T06:23:04.406Z,6.70
2023-02-11T06:25:31.671Z,6.70
2023-02-11T06:27:58.831Z,6.70
2023-02-11T06:30:26.157Z,6.70
2023-02-11T06:32:54.627Z,6.70
2023-02-11T06:35:21.836Z,6.70
2023-02-11T06:37:49.665Z,6.70
2023-02-11T06:40:16.983Z,6.80
2023-02-11T06:42:44.324Z,6.80
2023-02-11T06:45:13.166Z,6.80
2023-02-11T06:47:40.833Z,6.80
2023-02-11T06:50:12.371Z,6.80
2023-02-11T06:52:40.054Z,6.80
2023-02-11T06:55:08.228Z,6.90
2023-02-11T06:57:35.509Z,6.80
2023-02-11T07:00:02.788Z,6.80
2023-02-11T07:02:31.057Z,6.80
2023-02-11T07:04:58.342Z,6.80
2023-02-11T07:07:26.163Z,6.80
2023-02-11T07:09:53.343Z,6.90
2023-02-11T07:12:20.624Z,6.90
2023-02-11T07:14:47.820Z,6.90
2023-02-11T07:17:15.284Z,6.90
2023-02-11T07:19:43.233Z,6.90
2023-02-11T07:22:10.994Z,6.90
2023-02-11T07:24:38.157Z,6.90
2023-02-11T07:27:05.309Z,7.00
2023-02-11T07:29:32.971Z,7.00
2023-02-11T07:32:00.788Z,7.00
2023-02-11T07:34:28.053Z,7.00
2023-02-11T07:36:55.198Z,7.00
2023-02-11T07:39:22.496Z,7.00
2023-02-11T07:41:49.670Z,7.00
2023-02-11T07:44:17.489Z,7.10
2023-02-11T07:46:45.524Z,7.10
2023-02-11T07:49:13.020Z,7.10
2023-02-11T07:51:40.240Z,7.10
2023-02-11T07:54:07.850Z,7.20
2023-02-11T07:56:35.055Z,7.10
2023-02-11T07:59:03.848Z,7.20
2023-02-11T08:01:31.363Z,7.20
2023-02-11T08:03:59.937Z,7.20
2023-02-11T08:06:29.611Z,7.30
2023-02-11T08:08:57.330Z,7.30
2023-02-11T08:11:27.620Z,7.30
2023-02-11T08:13:56.181Z,7.30
2023-02-11T08:16:24.747Z,7.40
2023-02-11T08:18:55.156Z,7.40
2023-02-11T08:21:22.322Z,7.40
2023-02-11T08:23:49.994Z,7.40
2023-02-11T08:26:20.310Z,7.40
2023-02-11T08:28:50.320Z,7.50
2023-02-11T08:31:28.377Z,7.50
2023-02-11T08:33:58.040Z,7.50
2023-02-11T08:36:29.092Z,7.60
2023-02-11T08:39:16.154Z,7.60
2023-02-11T08:41:49.070Z,7.60
2023-02-11T08:44:20.651Z,7.60
2023-02-11T08:46:48.936Z,7.60
2023-02-11T08:49:17.275Z,7.60
2023-02-11T08:51:45.920Z,7.60
2023-02-11T08:54:13.328Z,7.60
2023-02-11T08:56:40.987Z,7.70
2023-02-11T08:59:11.638Z,7.70
2023-02-11T09:01:39.464Z,7.70
2023-02-11T09:04:06.834Z,7.80
2023-02-11T09:06:34.136Z,7.80
2023-02-11T09:09:01.408Z,7.90
2023-02-11T09:11:35.326Z,7.90
2023-02-11T09:14:04.238Z,7.90
2023-02-11T09:16:34.574Z,7.90
2023-02-11T09:19:03.846Z,7.90
2023-02-11T09:21:31.378Z,7.90
2023-02-11T09:23:58.610Z,7.80
2023-02-11T09:26:28.748Z,7.80
2023-02-11T09:28:56.512Z,7.80
2023-02-11T09:31:27.497Z,7.80
2023-02-11T09:33:58.967Z,7.80
2023-02-11T09:36:29.378Z,7.80
2023-02-11T09:38:59.019Z,7.80
2023-02-11T09:41:41.664Z,7.80
2023-02-11T09:44:18.650Z,7.90
2023-02-11T09:46:53.320Z,7.90
2023-02-11T09:49:26.366Z,8.00
2023-02-11T09:52:05.938Z,8.00
2023-02-11T09:54:53.795Z,8.10
2023-02-11T09:57:28.660Z,8.10
2023-02-11T09:59:57.625Z,8.10
2023-02-11T10:02:29.748Z,8.20
2023-02-11T10:05:18.227Z,8.20
2023-02-11T10:08:04.926Z,8.20
2023-02-11T10:10:52.201Z,8.30
2023-02-11T10:13:31.375Z,8.40
2023-02-11T10:16:28.912Z,8.50
2023-02-11T10:19:13.869Z,8.40
2023-02-11T10:21:51.422Z,8.40
2023-02-11T10:24:19.470Z,8.40
2023-02-11T10:26:47.466Z,8.40
2023-02-11T10:29:36.110Z,8.50
2023-02-11T10:32:12.781Z,8.50
2023-02-11T10:34:42.110Z,8.50
2023-02-11T10:37:12.887Z,8.50
2023-02-11T10:39:41.669Z,8.50
2023-02-11T10:42:13.432Z,8.50
2023-02-11T10:44:54.912Z,8.40
2023-02-11T10:47:34.802Z,8.40
2023-02-11T10:50:27.504Z,8.40
2023-02-11T10:53:20.508Z,8.40
2023-02-11T10:55:53.842Z,8.50
2023-02-11T10:58:45.836Z,8.40
2023-02-11T11:01:23.864Z,8.50
2023-02-11T11:03:52.974Z,8.60
2023-02-11T11:06:32.756Z,8.80
2023-02-11T11:09:01.100Z,8.90
2023-02-11T11:11:28.334Z,8.90
2023-02-11T11:14:01.200Z,9.00
2023-02-11T11:16:33.342Z,8.90
2023-02-11T11:19:06.596Z,8.80
2023-02-11T11:21:36.409Z,8.70
2023-02-11T11:24:04.636Z,8.60
2023-02-11T11:26:54.011Z,8.40
2023-02-11T11:29:38.324Z,8.40
2023-02-11T11:32:15.649Z,8.50
2023-02-11T11:34:48.465Z,8.50
2023-02-11T11:37:28.700Z,8.50
2023-02-11T11:40:04.645Z,8.60
2023-02-11T11:42:34.619Z,8.70
2023-02-11T11:45:25.676Z,8.80
2023-02-11T11:48:06.675Z,8.90
2023-02-11T11:50:43.266Z,9.10
2023-02-11T11:53:28.219Z,9.20
2023-02-11T11:56:11.475Z,9.30
2023-02-11T11:58:39.149Z,9.40
2023-02-11T12:01:30.340Z,9.50
2023-02-11T12:04:18.596Z,9.50
2023-02-11T12:07:05.053Z,9.50
2023-02-11T12:09:48.943Z,9.60
2023-02-11T12:12:34.233Z,9.50
2023-02-11T12:15:25.541Z,9.30
2023-02-11T12:18:32.781Z,9.40
2023-02-11T12:21:25.401Z,9.20
2023-02-11T12:24:29.074Z,9.30
2023-02-11T12:27:10.454Z,9.20
2023-02-11T12:30:19.920Z,9.20
2023-02-11T12:33:12.181Z,9.20
2023-02-11T12:35:55.063Z,9.10
2023-02-11T12:38:49.116Z,9.10
2023-02-11T12:42:06.208Z,9.00
2023-02-11T12:44:41.713Z,9.10
2023-02-11T12:47:35.717Z,9.00
2023-02-11T12:50:22.405Z,9.00
2023-02-11T12:53:02.937Z,9.00
2023-02-11T12:55:37.261Z,9.10
2023-02-11T12:58:07.446Z,9.00
2023-02-11T13:00:48.079Z,9.10
2023-02-11T13:03:23.717Z,9.10
2023-02-11T13:05:59.049Z,9.40
2023-02-11T13:08:31.850Z,9.40
2023-02-11T13:11:03.513Z,9.60
2023-02-11T13:13:54.780Z,9.70
2023-02-11T13:16:39.978Z,9.50
2023-02-11T13:19:27.281Z,9.40
2023-02-11T13:22:19.553Z,9.40
2023-02-11T13:25:14.974Z,9.30
2023-02-11T13:27:58.721Z,9.30
2023-02-11T13:30:30.346Z,9.30
2023-02-11T13:32:57.468Z,9.30
2023-02-11T13:35:37.168Z,9.40
2023-02-11T13:38:21.788Z,9.40
2023-02-11T13:41:04.452Z,9.40
2023-02-11T13:43:34.816Z,9.40
2023-02-11T13:46:04.760Z,9.40
2023-02-11T13:48:35.823Z,9.60
2023-02-11T13:51:07.094Z,9.80
2023-02-11T13:53:50.095Z,10.00
2023-02-11T13:56:43.973Z,10.40
2023-02-11T13:59:27.572Z,10.60
2023-02-11T14:02:24.564Z,10.40
2023-02-11T14:05:39.632Z,10.20
2023-02-11T14:08:28.527Z,9.90
2023-02-11T14:11:01.547Z,9.80
2023-02-11T14:13:33.308Z,9.70
2023-02-11T14:16:36.324Z,9.60
2023-02-11T14:19:05.900Z,9.50
2023-02-11T14:21:38.796Z,9.40
2023-02-11T14:24:06.875Z,9.40
2023-02-11T14:26:56.625Z,9.40
2023-02-11T14:30:08.486Z,9.30
2023-02-11T14:32:48.101Z,9.40
2023-02-11T14:35:39.170Z,9.40
2023-02-11T14:38:54.624Z,9.30
2023-02-11T14:41:31.776Z,9.40
2023-02-11T14:44:03.557Z,9.40
2023-02-11T14:46:33.580Z,9.40
2023-02-11T14:49:03.677Z,9.50
2023-02-11T14:51:41.014Z,9.40
2023-02-11T14:54:22.693Z,9.40
2023-02-11T14:57:08.257Z,9.30
2023-02-11T14:59:36.080Z,9.20
2023-02-11T15:02:03.768Z,9.20
2023-02-11T15:04:34.345Z,9.20
2023-02-11T15:07:08.119Z,9.10
2023-02-11T15:09:45.606Z,9.10
2023-02-11T15:12:28.382Z,9.10
2023-02-11T15:14:58.798Z,9.00
2023-02-11T15:17:29.988Z,9.00
2023-02-11T15:20:01.791Z,9.00
2023-02-11T15:22:36.681Z,9.00
2023-02-11T15:25:14.625Z,8.90
2023-02-11T15:27:48.610Z,8.90
2023-02-11T15:30:21.692Z,8.90
2023-02-11T15:33:02.634Z,8.80
2023-02-11T15:35:34.947Z,8.80
2023-02-11T15:38:03.411Z,8.70
2023-02-11T15:40:34.315Z,8.70
2023-02-11T15:43:02.907Z,8.60
2023-02-11T15:45:37.835Z,8.60
2023-02-11T15:48:45.155Z,8.60
2023-02-11T15:51:23.009Z,8.60
2023-02-11T15:53:58.459Z,8.50
2023-02-11T15:56:30.569Z,8.50
2023-02-11T15:59:00.536Z,8.50
2023-02-11T16:01:34.270Z,8.50
2023-02-11T16:04:03.526Z,8.50
2023-02-11T16:06:42.415Z,8.40
2023-02-11T16:09:12.603Z,8.40
2023-02-11T16:11:48.826Z,8.40
2023-02-11T16:14:31.121Z,8.40
2023-02-11T16:17:12.045Z,8.40
2023-02-11T16:19:45.919Z,8.40
2023-02-11T16:22:24.134Z,8.40
2023-02-11T16:24:53.540Z,8.30
2023-02-11T16:27:30.940Z,8.30
2023-02-11T16:29:58.724Z,8.30
2023-02-11T16:32:28.103Z,8.30
2023-02-11T16:34:57.957Z,8.30
2023-02-11T16:37:25.663Z,8.30
2023-02-11T16:39:58.083Z,8.30
2023-02-11T16:42:25.925Z,8.30
2023-02-11T16:44:53.078Z,8.30
2023-02-11T16:47:24.986Z,8.30
2023-02-11T16:49:53.046Z,8.30
2023-02-11T16:52:21.627Z,8.30
2023-02-11T16:54:49.957Z,8.30
2023-02-11T16:57:20.309Z,8.30
2023-02-11T16:59:49.444Z,8.20
2023-02-11T17:02:28.093Z,8.20
2023-02-11T17:04:58.066Z,8.20
2023-02-11T17:07:25.805Z,8.20
2023-02-11T17:09:53.522Z,8.20
2023-02-11T17:12:21.638Z,8.20
2023-02-11T17:14:48.812Z,8.20
2023-02-11T17:17:16.044Z,8.10
2023-02-11T17:19:43.843Z,8.10
2023-02-11T17:22:12.028Z,8.10
2023-02-11T17:24:39.208Z,8.10
2023-02-11T17:27:06.458Z,8.00
2023-02-11T17:29:34.048Z,7.90
2023-02-11T17:32:01.907Z,7.90
2023-02-11T17:34:29.271Z,7.80
2023-02-11T17:36:57.830Z,7.80
2023-02-11T17:39:25.819Z,7.80
2023-02-11T17:41:53.101Z,7.80
2023-02-11T17:44:20.421Z,7.70
2023-02-11T17:46:48.030Z,7.70
2023-02-11T17:49:16.683Z,7.70
2023-02-11T17:51:44.086Z,7.70
2023-02-11T17:54:14.462Z,7.70
2023-02-11T17:56:41.832Z,7.70
2023-02-11T17:59:11.350Z,7.60
2023-02-11T18:01:39.680Z,7.60
2023-02-11T18:04:08.240Z,7.60
2023-02-11T18:06:36.139Z,7.60
2023-02-11T18:09:04.277Z,7.60
2023-02-11T18:11:33.318Z,7.60
2023-02-11T18:14:02.887Z,7.60
2023-02-11T18:16:30.845Z,7.60
2023-02-11T18:18:58.886Z,7.60
2023-02-11T18:21:27.378Z,7.60
2023-02-11T18:23:56.825Z,7.60
2023-02-11T18:26:28.002Z,7.60
2023-02-11T18:28:57.828Z,7.60
2023-02-11T18:31:26.253Z,7.60
2023-02-11T18:33:54.001Z,7.60
2023-02-11T18:36:22.608Z,7.60
2023-02-11T18:38:49.949Z,7.60
2023-02-11T18:41:17.133Z,7.60
2023-02-11T18:43:45.200Z,7.60
2023-02-11T18:46:14.520Z,7.60
2023-02-11T18:48:44.618Z,7.60
2023-02-11T18:51:15.302Z,7.60
2023-02-11T18:53:43.250Z,7.60
2023-02-11T18:56:16.495Z,7.60
2023-02-11T18:58:44.359Z,7.60
2023-02-11T19:01:20.927Z,7.60
2023-02-11T19:03:48.804Z,7.60
2023-02-11T19:06:28.523Z,7.60
2023-02-11T19:08:59.713Z,7.60
2023-02-11T19:11:47.602Z,7.60
2023-02-11T19:14:18.504Z,7.60
2023-02-11T19:16:46.333Z,7.60
2023-02-11T19:19:14.890Z,7.60
2023-02-11T19:21:44.081Z,7.60
2023-02-11T19:24:12.540Z,7.60
2023-02-11T19:26:39.800Z,7.60
2023-02-11T19:29:09.042Z,7.60
2023-02-11T19:31:36.772Z,7.60
2023-02-11T19:34:05.255Z,7.60
2023-02-11T19:36:32.561Z,7.70
2023-02-11T19:39:01.389Z,7.70
2023-02-11T19:41:30.581Z,7.70
2023-02-11T19:43:58.029Z,7.70
2023-02-11T19:46:33.507Z,7.70
2023-02-11T19:49:01.435Z,7.70
2023-02-11T19:51:29.508Z,7.70
2023-02-11T19:53:58.833Z,7.70
2023-02-11T19:56:28.483Z,7.70
2023-02-11T19:58:55.900Z,7.70
2023-02-11T20:01:24.409Z,7.70
2023-02-11T20:03:54.205Z,7.70
2023-02-11T20:06:27.977Z,7.70
2023-02-11T20:08:58.556Z,7.70
2023-02-11T20:11:29.733Z,7.70
2023-02-11T20:13:57.334Z,7.70
2023-02-11T20:16:44.565Z,7.70
2023-02-11T20:19:17.841Z,7.70
2023-02-11T20:21:47.766Z,7.70
2023-02-11T20:24:18.807Z,7.70
2023-02-11T20:26:48.204Z,7.70
2023-02-11T20:29:18.441Z,7.70
2023-02-11T20:31:46.030Z,7.70
2023-02-11T20:34:13.468Z,7.70
2023-02-11T20:36:40.820Z,7.70
2023-02-11T20:39:08.753Z,7.70
2023-02-11T20:41:39.618Z,7.70
2023-02-11T20:44:11.968Z,7.70
2023-02-11T20:46:42.753Z,7.70
2023-02-11T20:49:12.324Z,7.70
2023-02-11T20:51:40.054Z,7.70
2023-02-11T20:54:11.568Z,7.70
2023-02-11T20:56:38.846Z,7.70
2023-02-11T20:59:06.816Z,7.70
2023-02-11T21:01:42.497Z,7.70
2023-02-11T21:04:19.054Z,7.70
2023-02-11T21:06:49.648Z,7.70
2023-02-11T21:09:20.809Z,7.70
2023-02-11T21:11:49.229Z,7.70
2023-02-11T21:14:17.869Z,7.70
2023-02-11T21:16:46.711Z,7.70
2023-02-11T21:19:14.421Z,7.70
2023-02-11T21:21:42.512Z,7.70
2023-02-11T21:24:10.586Z,7.70
2023-02-11T21:26:38.332Z,7.70
2023-02-11T21:29:07.099Z,7.70
2023-02-11T21:31:35.509Z,7.70
2023-02-11T21:34:04.463Z,7.70
2023-02-11T21:36:31.874Z,7.70
2023-02-11T21:39:00.026Z,7.70
2023-02-11T21:41:27.671Z,7.70
2023-02-11T21:43:54.884Z,7.70
2023-02-11T21:46:22.876Z,7.70
2023-02-11T21:48:50.501Z,7.60
2023-02-11T21:51:20.537Z,7.60
2023-02-11T21:53:52.458Z,7.60
2023-02-11T21:56:19.881Z,7.60
2023-02-11T21:58:51.985Z,7.60
2023-02-11T22:01:22.325Z,7.60
2023-02-11T22:03:49.780Z,7.60
2023-02-11T22:06:21.265Z,7.60
2023-02-11T22:08:49.869Z,7.60
2023-02-11T22:11:17.786Z,7.60
2023-02-11T22:13:46.244Z,7.50
2023-02-11T22:16:16.657Z,7.50
2023-02-11T22:18:46.311Z,7.50
2023-02-11T22:21:17.184Z,7.50
2023-02-11T22:23:45.993Z,7.40
2023-02-11T22:26:16.942Z,7.40
2023-02-11T22:28:44.582Z,7.40
2023-02-11T22:31:17.586Z,7.40
2023-02-11T22:33:45.504Z,7.40
2023-02-11T22:36:16.790Z,7.40
2023-02-11T22:38:44.814Z,7.30
2023-02-11T22:41:12.504Z,7.30
2023-02-11T22:43:42.415Z,7.30
2023-02-11T22:46:12.156Z,7.30
2023-02-11T22:48:40.050Z,7.30
2023-02-11T22:51:12.767Z,7.20
2023-02-11T22:53:40.259Z,7.20
2023-02-11T22:56:15.822Z,7.20
2023-02-11T22:58:43.372Z,7.20
2023-02-11T23:01:11.225Z,7.20
2023-02-11T23:03:39.049Z,7.20
2023-02-11T23:06:06.629Z,7.20
2023-02-11T23:08:33.943Z,7.20
2023-02-11T23:11:09.689Z,7.20
2023-02-11T23:13:39.611Z,7.20
2023-02-11T23:16:09.933Z,7.20
2023-02-11T23:18:38.558Z,7.10
2023-02-11T23:21:12.080Z,7.10
2023-02-11T23:23:39.824Z,7.10
2023-02-11T23:26:12.315Z,7.10
2023-02-11T23:28:40.329Z,7.10
2023-02-11T23:31:21.161Z,7.10
2023-02-11T23:33:49.993Z,7.10
2023-02-11T23:36:18.285Z,7.10
2023-02-11T23:38:45.851Z,7.00
2023-02-11T23:41:13.800Z,7.00
2023-02-11T23:43:41.170Z,7.00
2023-02-11T23:46:09.697Z,7.00
2023-02-11T23:48:37.568Z,7.00
2023-02-11T23:51:05.210Z,7.00
2023-02-11T23:53:32.437Z,6.90
2023-02-11T23:55:59.613Z,6.90
2023-02-11T23:58:26.940Z,6.90
